KEFT

Details ICAO KEFT
Name Monroe Muni
Region United States
Timezone America/Chicago (UTC-5.0)
Plans Departing 1
Arriving 2
Stats Elevation 1,086 ft / 331 m (AMSL)
Location 42.614674° -89.591161°
Runways 2
Magnetic Variation 2.512° W
Sunrise 2018-05-25 10:28:55 UTC / 2018-05-25 05:28:55 Local
Sunset 2018-05-26 01:24:36 UTC / 2018-05-25 20:24:36 Local
Advertisement - Login to hide

Runways

ID Width Length Bearing (true) Bearing (mag) Surface Threshold Offset Overrun Length
02 75 ft / 23 m 3,031 ft / 924 m 21.62° 24.13° Asphalt 0 ft / 0 m 210 ft / 64 m
12 75 ft / 23 m 4,992 ft / 1,522 m 121.50° 124.01° Asphalt 0 ft / 0 m 300 ft / 91 m
20 75 ft / 23 m 3,031 ft / 924 m 201.62° 204.13° Asphalt 0 ft / 0 m 450 ft / 137 m
30 75 ft / 23 m 4,992 ft / 1,522 m 301.51° 304.02° Asphalt 0 ft / 0 m 0 ft / 0 m

Map

Weather


0- 5 10 15 20 25 30 35+ Temperature / ° C

Clouds and Precipitation
Forecast for 2018-05-26 00:00 UTC. Updated 4 hours ago

Ground ~20,000 ft ~40,000 ft Winds

METAR

KEFT 260255Z AUTO 21011G16KT 10SM SCT048 SCT100 22/17 A2980 RMK AO2 LTG DSNT SW

TAF

Not found

Frequencies

Recorded 118.37 MHz AWOS 3
Approach 126.00 MHz ROCKFORD APP/DEP
Unicom 123.05 MHz CTAF/UNICOM
Warning: Do not use this data for real-world aviation or navigation. No guarantee of current accuracy is given.